sensor_id;sensor_type;location;lat;lon;timestamp;temperature;humidity
65692;DHT22;52411;52.716;6.696;2022-10-12T00:01:14;7.00;99.90
65692;DHT22;52411;52.716;6.696;2022-10-12T00:03:40;7.00;99.90
65692;DHT22;52411;52.716;6.696;2022-10-12T00:06:17;7.10;99.90
65692;DHT22;52411;52.716;6.696;2022-10-12T00:08:44;7.10;99.90
65692;DHT22;52411;52.716;6.696;2022-10-12T00:11:16;7.10;99.90
65692;DHT22;52411;52.716;6.696;2022-10-12T00:13:42;7.10;99.90
65692;DHT22;52411;52.716;6.696;2022-10-12T00:16:10;7.10;99.90
65692;DHT22;52411;52.716;6.696;2022-10-12T00:18:36;7.10;99.90
65692;DHT22;52411;52.716;6.696;2022-10-12T00:21:08;7.10;99.90
65692;DHT22;52411;52.716;6.696;2022-10-12T00:23:35;7.10;99.90
65692;DHT22;52411;52.716;6.696;2022-10-12T00:26:10;7.20;99.90
65692;DHT22;52411;52.716;6.696;2022-10-12T00:28:36;7.10;99.90
65692;DHT22;52411;52.716;6.696;2022-10-12T00:31:07;7.10;99.90
65692;DHT22;52411;52.716;6.696;2022-10-12T00:33:33;7.20;99.90
65692;DHT22;52411;52.716;6.696;2022-10-12T00:35:58;7.20;99.90
65692;DHT22;52411;52.716;6.696;2022-10-12T00:38:24;7.20;99.90
65692;DHT22;52411;52.716;6.696;2022-10-12T00:40:49;7.20;99.90
65692;DHT22;52411;52.716;6.696;2022-10-12T00:43:30;7.20;99.90
65692;DHT22;52411;52.716;6.696;2022-10-12T00:45:59;7.20;99.90
65692;DHT22;52411;52.716;6.696;2022-10-12T00:48:25;7.10;99.90
65692;DHT22;52411;52.716;6.696;2022-10-12T00:50:52;7.10;99.90
65692;DHT22;52411;52.716;6.696;2022-10-12T00:53:22;7.00;99.90
65692;DHT22;52411;52.716;6.696;2022-10-12T00:55:58;7.00;99.90
65692;DHT22;52411;52.716;6.696;2022-10-12T00:58:25;7.00;99.90
65692;DHT22;52411;52.716;6.696;2022-10-12T01:00:51;7.00;99.90
65692;DHT22;52411;52.716;6.696;2022-10-12T01:03:19;7.00;99.90
65692;DHT22;52411;52.716;6.696;2022-10-12T01:05:45;7.00;99.90
65692;DHT22;52411;52.716;6.696;2022-10-12T01:08:11;7.00;99.90
65692;DHT22;52411;52.716;6.696;2022-10-12T01:10:37;7.00;99.90
65692;DHT22;52411;52.716;6.696;2022-10-12T01:13:04;6.90;99.90
65692;DHT22;52411;52.716;6.696;2022-10-12T01:15:36;6.80;99.90
65692;DHT22;52411;52.716;6.696;2022-10-12T01:21:12;6.80;99.90
65692;DHT22;52411;52.716;6.696;2022-10-12T01:24:09;6.70;99.90
65692;DHT22;52411;52.716;6.696;2022-10-12T01:30:06;6.70;99.90
65692;DHT22;52411;52.716;6.696;2022-10-12T01:38:35;6.50;99.90
65692;DHT22;52411;52.716;6.696;2022-10-12T01:43:40;6.20;99.90
65692;DHT22;52411;52.716;6.696;2022-10-12T01:46:52;6.10;99.90
65692;DHT22;52411;52.716;6.696;2022-10-12T01:48:54;6.00;99.90
65692;DHT22;52411;52.716;6.696;2022-10-12T01:51:30;5.90;99.90
65692;DHT22;52411;52.716;6.696;2022-10-12T01:57:07;5.80;99.90
65692;DHT22;52411;52.716;6.696;2022-10-12T01:59:48;5.80;99.90
65692;DHT22;52411;52.716;6.696;2022-10-12T02:05:10;5.80;99.90
65692;DHT22;52411;52.716;6.696;2022-10-12T02:07:44;5.80;99.90
65692;DHT22;52411;52.716;6.696;2022-10-12T02:10:26;5.80;99.90
65692;DHT22;52411;52.716;6.696;2022-10-12T02:12:53;5.80;99.90
65692;DHT22;52411;52.716;6.696;2022-10-12T02:15:21;5.90;99.90
65692;DHT22;52411;52.716;6.696;2022-10-12T02:17:50;5.90;99.90
65692;DHT22;52411;52.716;6.696;2022-10-12T02:20:17;5.90;99.90
65692;DHT22;52411;52.716;6.696;2022-10-12T02:22:47;5.90;99.90
65692;DHT22;52411;52.716;6.696;2022-10-12T02:25:16;5.90;99.90
65692;DHT22;52411;52.716;6.696;2022-10-12T02:27:49;5.90;99.90
65692;DHT22;52411;52.716;6.696;2022-10-12T02:30:16;6.00;99.90
65692;DHT22;52411;52.716;6.696;2022-10-12T02:32:49;6.00;99.90
65692;DHT22;52411;52.716;6.696;2022-10-12T02:35:31;6.00;99.90
65692;DHT22;52411;52.716;6.696;2022-10-12T02:38:22;5.90;99.90
65692;DHT22;52411;52.716;6.696;2022-10-12T02:40:55;5.90;99.90
65692;DHT22;52411;52.716;6.696;2022-10-12T02:43:38;5.90;99.90
65692;DHT22;52411;52.716;6.696;2022-10-12T02:46:08;5.90;99.90
65692;DHT22;52411;52.716;6.696;2022-10-12T02:48:36;5.90;99.90
65692;DHT22;52411;52.716;6.696;2022-10-12T02:51:03;5.90;99.90
65692;DHT22;52411;52.716;6.696;2022-10-12T02:53:30;5.80;99.90
65692;DHT22;52411;52.716;6.696;2022-10-12T02:56:02;5.70;99.90
65692;DHT22;52411;52.716;6.696;2022-10-12T02:58:28;5.60;99.90
65692;DHT22;52411;52.716;6.696;2022-10-12T03:00:54;5.50;99.90
65692;DHT22;52411;52.716;6.696;2022-10-12T03:03:19;5.40;99.90
65692;DHT22;52411;52.716;6.696;2022-10-12T03:05:45;5.40;99.90
65692;DHT22;52411;52.716;6.696;2022-10-12T03:08:11;5.40;99.90
65692;DHT22;52411;52.716;6.696;2022-10-12T03:10:36;5.40;99.90
65692;DHT22;52411;52.716;6.696;2022-10-12T03:13:02;5.40;99.90
65692;DHT22;52411;52.716;6.696;2022-10-12T03:15:28;5.30;99.90
65692;DHT22;52411;52.716;6.696;2022-10-12T03:17:54;5.30;99.90
65692;DHT22;52411;52.716;6.696;2022-10-12T03:20:19;5.20;99.90
65692;DHT22;52411;52.716;6.696;2022-10-12T03:22:45;5.20;99.90
65692;DHT22;52411;52.716;6.696;2022-10-12T03:25:11;5.10;99.90
65692;DHT22;52411;52.716;6.696;2022-10-12T03:27:37;5.10;99.90
65692;DHT22;52411;52.716;6.696;2022-10-12T03:30:03;5.10;99.90
65692;DHT22;52411;52.716;6.696;2022-10-12T03:32:29;5.10;99.90
65692;DHT22;52411;52.716;6.696;2022-10-12T03:34:54;5.10;99.90
65692;DHT22;52411;52.716;6.696;2022-10-12T03:37:20;5.10;99.90
65692;DHT22;52411;52.716;6.696;2022-10-12T03:39:45;5.10;99.90
65692;DHT22;52411;52.716;6.696;2022-10-12T03:42:11;5.20;99.90
65692;DHT22;52411;52.716;6.696;2022-10-12T03:44:36;5.10;99.90
65692;DHT22;52411;52.716;6.696;2022-10-12T03:47:02;5.10;99.90
65692;DHT22;52411;52.716;6.696;2022-10-12T03:49:28;5.20;99.90
65692;DHT22;52411;52.716;6.696;2022-10-12T03:51:53;5.10;99.90
65692;DHT22;52411;52.716;6.696;2022-10-12T03:54:19;5.20;99.90
65692;DHT22;52411;52.716;6.696;2022-10-12T03:56:44;5.10;99.90
65692;DHT22;52411;52.716;6.696;2022-10-12T03:59:10;5.20;99.90
65692;DHT22;52411;52.716;6.696;2022-10-12T04:01:35;5.20;99.90
65692;DHT22;52411;52.716;6.696;2022-10-12T04:04:01;5.20;99.90
65692;DHT22;52411;52.716;6.696;2022-10-12T04:06:27;5.10;99.90
65692;DHT22;52411;52.716;6.696;2022-10-12T04:08:53;5.10;99.90
65692;DHT22;52411;52.716;6.696;2022-10-12T04:11:18;5.10;99.90
65692;DHT22;52411;52.716;6.696;2022-10-12T04:13:44;5.20;99.90
65692;DHT22;52411;52.716;6.696;2022-10-12T04:16:10;5.20;99.90
65692;DHT22;52411;52.716;6.696;2022-10-12T04:18:36;5.20;99.90
65692;DHT22;52411;52.716;6.696;2022-10-12T04:21:02;5.20;99.90
65692;DHT22;52411;52.716;6.696;2022-10-12T04:23:30;5.10;99.90
65692;DHT22;52411;52.716;6.696;2022-10-12T04:25:56;5.10;99.90
65692;DHT22;52411;52.716;6.696;2022-10-12T04:28:21;5.10;99.90
65692;DHT22;52411;52.716;6.696;2022-10-12T04:30:47;5.00;99.90
65692;DHT22;52411;52.716;6.696;2022-10-12T04:33:12;5.10;99.90
65692;DHT22;52411;52.716;6.696;2022-10-12T04:35:38;5.00;99.90
65692;DHT22;52411;52.716;6.696;2022-10-12T04:38:04;5.00;99.90
65692;DHT22;52411;52.716;6.696;2022-10-12T04:40:30;4.90;99.90
65692;DHT22;52411;52.716;6.696;2022-10-12T04:42:55;4.80;99.90
65692;DHT22;52411;52.716;6.696;2022-10-12T04:45:24;4.70;99.90
65692;DHT22;52411;52.716;6.696;2022-10-12T04:47:49;4.80;99.90
65692;DHT22;52411;52.716;6.696;2022-10-12T04:50:15;4.80;99.90
65692;DHT22;52411;52.716;6.696;2022-10-12T04:52:41;4.80;99.90
65692;DHT22;52411;52.716;6.696;2022-10-12T04:55:07;4.90;99.90
65692;DHT22;52411;52.716;6.696;2022-10-12T04:57:33;4.80;99.90
65692;DHT22;52411;52.716;6.696;2022-10-12T04:59:58;4.80;99.90
65692;DHT22;52411;52.716;6.696;2022-10-12T05:02:24;4.70;99.90
65692;DHT22;52411;52.716;6.696;2022-10-12T05:04:49;4.70;99.90
65692;DHT22;52411;52.716;6.696;2022-10-12T05:07:16;4.70;99.90
65692;DHT22;52411;52.716;6.696;2022-10-12T05:09:42;4.70;99.90
65692;DHT22;52411;52.716;6.696;2022-10-12T05:12:07;4.80;99.90
65692;DHT22;52411;52.716;6.696;2022-10-12T05:14:33;4.70;99.90
65692;DHT22;52411;52.716;6.696;2022-10-12T05:16:59;4.70;99.90
65692;DHT22;52411;52.716;6.696;2022-10-12T05:19:24;4.70;99.90
65692;DHT22;52411;52.716;6.696;2022-10-12T05:21:50;4.60;99.90
65692;DHT22;52411;52.716;6.696;2022-10-12T05:24:17;4.50;99.90
65692;DHT22;52411;52.716;6.696;2022-10-12T05:26:43;4.40;99.90
65692;DHT22;52411;52.716;6.696;2022-10-12T05:29:08;4.30;99.90
65692;DHT22;52411;52.716;6.696;2022-10-12T05:31:34;4.30;99.90
65692;DHT22;52411;52.716;6.696;2022-10-12T05:33:59;4.30;99.90
65692;DHT22;52411;52.716;6.696;2022-10-12T05:36:25;4.30;99.90
65692;DHT22;52411;52.716;6.696;2022-10-12T05:38:51;4.30;99.90
65692;DHT22;52411;52.716;6.696;2022-10-12T05:41:16;4.40;99.90
65692;DHT22;52411;52.716;6.696;2022-10-12T05:43:42;4.40;99.90
65692;DHT22;52411;52.716;6.696;2022-10-12T05:46:08;4.40;99.90
65692;DHT22;52411;52.716;6.696;2022-10-12T05:48:33;4.40;99.90
65692;DHT22;52411;52.716;6.696;2022-10-12T05:50:59;4.50;99.90
65692;DHT22;52411;52.716;6.696;2022-10-12T05:53:25;4.50;99.90
65692;DHT22;52411;52.716;6.696;2022-10-12T05:55:54;4.50;99.90
65692;DHT22;52411;52.716;6.696;2022-10-12T05:58:20;4.50;99.90
65692;DHT22;52411;52.716;6.696;2022-10-12T06:00:45;4.40;99.90
65692;DHT22;52411;52.716;6.696;2022-10-12T06:03:11;4.40;99.90
65692;DHT22;52411;52.716;6.696;2022-10-12T06:05:37;4.50;99.90
65692;DHT22;52411;52.716;6.696;2022-10-12T06:08:02;4.50;99.90
65692;DHT22;52411;52.716;6.696;2022-10-12T06:10:28;4.50;99.90
65692;DHT22;52411;52.716;6.696;2022-10-12T06:12:53;4.60;99.90
65692;DHT22;52411;52.716;6.696;2022-10-12T06:15:19;4.60;99.90
65692;DHT22;52411;52.716;6.696;2022-10-12T06:17:45;4.60;99.90
65692;DHT22;52411;52.716;6.696;2022-10-12T06:20:10;4.60;99.90
65692;DHT22;52411;52.716;6.696;2022-10-12T06:22:37;4.60;99.90
65692;DHT22;52411;52.716;6.696;2022-10-12T06:25:02;4.70;99.90
65692;DHT22;52411;52.716;6.696;2022-10-12T06:27:28;4.60;99.90
65692;DHT22;52411;52.716;6.696;2022-10-12T06:29:54;4.60;99.90
65692;DHT22;52411;52.716;6.696;2022-10-12T06:32:19;4.60;99.90
65692;DHT22;52411;52.716;6.696;2022-10-12T06:34:45;4.50;99.90
65692;DHT22;52411;52.716;6.696;2022-10-12T06:37:10;4.50;99.90
65692;DHT22;52411;52.716;6.696;2022-10-12T06:39:36;4.60;99.90
65692;DHT22;52411;52.716;6.696;2022-10-12T06:42:02;4.50;99.90
65692;DHT22;52411;52.716;6.696;2022-10-12T06:44:28;4.50;99.90
65692;DHT22;52411;52.716;6.696;2022-10-12T06:46:53;4.50;99.90
65692;DHT22;52411;52.716;6.696;2022-10-12T06:49:19;4.60;99.90
65692;DHT22;52411;52.716;6.696;2022-10-12T06:51:44;4.60;99.90
65692;DHT22;52411;52.716;6.696;2022-10-12T06:54:10;4.60;99.90
65692;DHT22;52411;52.716;6.696;2022-10-12T06:56:36;4.60;99.90
65692;DHT22;52411;52.716;6.696;2022-10-12T06:59:02;4.70;99.90
65692;DHT22;52411;52.716;6.696;2022-10-12T07:01:28;4.70;99.90
65692;DHT22;52411;52.716;6.696;2022-10-12T07:03:53;4.70;99.90
65692;DHT22;52411;52.716;6.696;2022-10-12T07:06:19;4.70;99.90
65692;DHT22;52411;52.716;6.696;2022-10-12T07:08:45;4.80;99.90
65692;DHT22;52411;52.716;6.696;2022-10-12T07:11:12;4.80;99.90
65692;DHT22;52411;52.716;6.696;2022-10-12T07:13:38;4.90;99.90
65692;DHT22;52411;52.716;6.696;2022-10-12T07:16:04;4.90;99.90
65692;DHT22;52411;52.716;6.696;2022-10-12T07:18:29;5.00;99.90
65692;DHT22;52411;52.716;6.696;2022-10-12T07:20:56;5.10;99.90
65692;DHT22;52411;52.716;6.696;2022-10-12T07:23:27;5.30;99.90
65692;DHT22;52411;52.716;6.696;2022-10-12T07:25:53;5.40;99.90
65692;DHT22;52411;52.716;6.696;2022-10-12T07:28:19;5.50;99.90
65692;DHT22;52411;52.716;6.696;2022-10-12T07:30:46;5.70;99.90
65692;DHT22;52411;52.716;6.696;2022-10-12T07:33:12;5.80;99.90
65692;DHT22;52411;52.716;6.696;2022-10-12T07:35:37;6.00;99.90
65692;DHT22;52411;52.716;6.696;2022-10-12T07:38:03;6.10;99.90
65692;DHT22;52411;52.716;6.696;2022-10-12T07:40:30;6.30;99.90
65692;DHT22;52411;52.716;6.696;2022-10-12T07:42:56;6.60;99.90
65692;DHT22;52411;52.716;6.696;2022-10-12T07:45:23;6.80;99.90
65692;DHT22;52411;52.716;6.696;2022-10-12T07:47:48;7.00;99.90
65692;DHT22;52411;52.716;6.696;2022-10-12T07:50:15;7.30;99.90
65692;DHT22;52411;52.716;6.696;2022-10-12T07:52:40;7.50;99.90
65692;DHT22;52411;52.716;6.696;2022-10-12T07:55:07;7.80;99.90
65692;DHT22;52411;52.716;6.696;2022-10-12T07:57:32;8.00;99.90
65692;DHT22;52411;52.716;6.696;2022-10-12T07:59:58;8.20;99.90
65692;DHT22;52411;52.716;6.696;2022-10-12T08:02:24;8.40;99.90
65692;DHT22;52411;52.716;6.696;2022-10-12T08:04:50;8.60;99.90
65692;DHT22;52411;52.716;6.696;2022-10-12T08:07:16;8.80;99.90
65692;DHT22;52411;52.716;6.696;2022-10-12T08:09:41;8.90;99.90
65692;DHT22;52411;52.716;6.696;2022-10-12T08:12:09;9.00;99.90
65692;DHT22;52411;52.716;6.696;2022-10-12T08:14:34;9.20;99.90
65692;DHT22;52411;52.716;6.696;2022-10-12T08:17:00;9.30;99.90
65692;DHT22;52411;52.716;6.696;2022-10-12T08:19:26;9.30;99.90
65692;DHT22;52411;52.716;6.696;2022-10-12T08:21:51;9.40;99.90
65692;DHT22;52411;52.716;6.696;2022-10-12T08:24:17;9.50;99.90
65692;DHT22;52411;52.716;6.696;2022-10-12T08:26:42;9.60;99.90
65692;DHT22;52411;52.716;6.696;2022-10-12T08:29:09;9.60;99.90
65692;DHT22;52411;52.716;6.696;2022-10-12T08:31:35;9.60;99.90
65692;DHT22;52411;52.716;6.696;2022-10-12T08:34:01;9.70;99.90
65692;DHT22;52411;52.716;6.696;2022-10-12T08:36:26;9.70;99.90
65692;DHT22;52411;52.716;6.696;2022-10-12T08:38:53;9.70;99.90
65692;DHT22;52411;52.716;6.696;2022-10-12T08:41:46;9.80;99.90
65692;DHT22;52411;52.716;6.696;2022-10-12T08:47:30;9.90;99.90
65692;DHT22;52411;52.716;6.696;2022-10-12T08:49:57;9.90;99.90
65692;DHT22;52411;52.716;6.696;2022-10-12T08:52:58;9.90;99.90
65692;DHT22;52411;52.716;6.696;2022-10-12T08:55:33;10.00;99.90
65692;DHT22;52411;52.716;6.696;2022-10-12T08:58:00;10.00;99.90
65692;DHT22;52411;52.716;6.696;2022-10-12T09:00:28;10.00;99.90
65692;DHT22;52411;52.716;6.696;2022-10-12T09:05:41;10.00;99.90
65692;DHT22;52411;52.716;6.696;2022-10-12T09:11:32;9.90;99.90
65692;DHT22;52411;52.716;6.696;2022-10-12T09:14:09;9.90;99.90
65692;DHT22;52411;52.716;6.696;2022-10-12T09:16:40;9.80;99.90
65692;DHT22;52411;52.716;6.696;2022-10-12T09:19:15;9.80;99.90
65692;DHT22;52411;52.716;6.696;2022-10-12T09:21:42;9.80;99.90
65692;DHT22;52411;52.716;6.696;2022-10-12T09:24:25;9.70;99.90
65692;DHT22;52411;52.716;6.696;2022-10-12T09:26:57;9.60;99.90
65692;DHT22;52411;52.716;6.696;2022-10-12T09:29:27;9.60;99.90
65692;DHT22;52411;52.716;6.696;2022-10-12T09:32:16;9.60;99.90
65692;DHT22;52411;52.716;6.696;2022-10-12T09:34:47;9.70;99.90
65692;DHT22;52411;52.716;6.696;2022-10-12T09:37:21;9.70;99.90
65692;DHT22;52411;52.716;6.696;2022-10-12T09:39:48;9.80;99.90
65692;DHT22;52411;52.716;6.696;2022-10-12T09:42:14;9.90;99.90
65692;DHT22;52411;52.716;6.696;2022-10-12T09:44:47;9.90;99.90
65692;DHT22;52411;52.716;6.696;2022-10-12T09:47:31;10.00;99.90
65692;DHT22;52411;52.716;6.696;2022-10-12T09:49:59;10.20;99.90
65692;DHT22;52411;52.716;6.696;2022-10-12T09:55:06;10.30;99.90
65692;DHT22;52411;52.716;6.696;2022-10-12T09:57:51;10.40;99.90
65692;DHT22;52411;52.716;6.696;2022-10-12T10:00:26;10.40;99.90
65692;DHT22;52411;52.716;6.696;2022-10-12T10:02:54;10.50;99.90
65692;DHT22;52411;52.716;6.696;2022-10-12T10:05:31;10.70;99.90
65692;DHT22;52411;52.716;6.696;2022-10-12T10:10:50;11.00;99.90
65692;DHT22;52411;52.716;6.696;2022-10-12T10:13:16;11.00;99.90
65692;DHT22;52411;52.716;6.696;2022-10-12T10:15:46;11.00;99.90
65692;DHT22;52411;52.716;6.696;2022-10-12T10:18:36;11.10;99.90
65692;DHT22;52411;52.716;6.696;2022-10-12T10:21:05;11.20;99.90
65692;DHT22;52411;52.716;6.696;2022-10-12T10:23:39;11.30;99.90
65692;DHT22;52411;52.716;6.696;2022-10-12T10:26:09;11.40;99.90
65692;DHT22;52411;52.716;6.696;2022-10-12T10:28:41;11.60;99.90
65692;DHT22;52411;52.716;6.696;2022-10-12T10:37:03;11.80;99.90
65692;DHT22;52411;52.716;6.696;2022-10-12T10:39:51;11.90;99.90
65692;DHT22;52411;52.716;6.696;2022-10-12T10:42:36;11.90;99.90
65692;DHT22;52411;52.716;6.696;2022-10-12T10:45:28;12.00;99.90
65692;DHT22;52411;52.716;6.696;2022-10-12T10:48:17;12.00;99.90
65692;DHT22;52411;52.716;6.696;2022-10-12T10:50:50;12.10;99.90
65692;DHT22;52411;52.716;6.696;2022-10-12T10:53:25;12.10;99.90
65692;DHT22;52411;52.716;6.696;2022-10-12T11:04:00;12.30;99.90
65692;DHT22;52411;52.716;6.696;2022-10-12T11:06:50;12.40;99.90
65692;DHT22;52411;52.716;6.696;2022-10-12T11:11:54;12.50;99.90
65692;DHT22;52411;52.716;6.696;2022-10-12T11:14:27;12.60;99.90
65692;DHT22;52411;52.716;6.696;2022-10-12T11:19:50;12.70;99.90
65692;DHT22;52411;52.716;6.696;2022-10-12T11:22:35;12.80;99.90
65692;DHT22;52411;52.716;6.696;2022-10-12T11:25:11;12.80;99.90
65692;DHT22;52411;52.716;6.696;2022-10-12T11:27:40;12.90;99.90
65692;DHT22;52411;52.716;6.696;2022-10-12T11:30:14;13.00;99.90
65692;DHT22;52411;52.716;6.696;2022-10-12T11:32:53;13.10;99.90
65692;DHT22;52411;52.716;6.696;2022-10-12T11:35:33;13.10;99.90
65692;DHT22;52411;52.716;6.696;2022-10-12T11:38:06;13.20;99.90
65692;DHT22;52411;52.716;6.696;2022-10-12T11:40:41;13.20;99.90
65692;DHT22;52411;52.716;6.696;2022-10-12T11:43:14;13.30;99.90
65692;DHT22;52411;52.716;6.696;2022-10-12T11:45:41;13.40;99.90
65692;DHT22;52411;52.716;6.696;2022-10-12T11:48:16;13.50;99.90
65692;DHT22;52411;52.716;6.696;2022-10-12T11:50:46;13.60;99.90
65692;DHT22;52411;52.716;6.696;2022-10-12T11:58:53;13.70;99.90
65692;DHT22;52411;52.716;6.696;2022-10-12T12:01:51;13.70;99.90
65692;DHT22;52411;52.716;6.696;2022-10-12T12:04:14;13.80;99.90
65692;DHT22;52411;52.716;6.696;2022-10-12T12:06:48;13.90;99.90
65692;DHT22;52411;52.716;6.696;2022-10-12T12:09:32;14.00;99.90
65692;DHT22;52411;52.716;6.696;2022-10-12T12:12:16;14.10;99.90
65692;DHT22;52411;52.716;6.696;2022-10-12T12:14:44;14.10;99.90
65692;DHT22;52411;52.716;6.696;2022-10-12T12:17:22;14.20;99.90
65692;DHT22;52411;52.716;6.696;2022-10-12T12:19:52;14.30;99.90
65692;DHT22;52411;52.716;6.696;2022-10-12T12:22:31;14.40;99.90
65692;DHT22;52411;52.716;6.696;2022-10-12T12:27:56;14.30;99.90
65692;DHT22;52411;52.716;6.696;2022-10-12T12:30:27;14.40;99.90
65692;DHT22;52411;52.716;6.696;2022-10-12T12:35:51;14.60;99.90
65692;DHT22;52411;52.716;6.696;2022-10-12T12:38:22;14.60;99.90
65692;DHT22;52411;52.716;6.696;2022-10-12T12:41:18;14.80;99.90
65692;DHT22;52411;52.716;6.696;2022-10-12T12:46:12;14.70;99.90
65692;DHT22;52411;52.716;6.696;2022-10-12T12:51:16;14.70;99.90
65692;DHT22;52411;52.716;6.696;2022-10-12T12:54:01;14.80;99.90
65692;DHT22;52411;52.716;6.696;2022-10-12T13:08:39;14.80;99.90
65692;DHT22;52411;52.716;6.696;2022-10-12T13:11:01;14.70;99.90
65692;DHT22;52411;52.716;6.696;2022-10-12T13:19:11;14.80;99.90
65692;DHT22;52411;52.716;6.696;2022-10-12T13:21:39;14.80;99.90
65692;DHT22;52411;52.716;6.696;2022-10-12T13:24:26;14.70;99.90
65692;DHT22;52411;52.716;6.696;2022-10-12T13:27:27;14.70;99.90
65692;DHT22;52411;52.716;6.696;2022-10-12T13:29:58;14.70;99.90
65692;DHT22;52411;52.716;6.696;2022-10-12T13:32:32;14.70;99.90
65692;DHT22;52411;52.716;6.696;2022-10-12T13:35:09;14.70;99.90
65692;DHT22;52411;52.716;6.696;2022-10-12T13:37:37;14.70;99.90
65692;DHT22;52411;52.716;6.696;2022-10-12T13:40:03;14.70;99.90
65692;DHT22;52411;52.716;6.696;2022-10-12T13:42:33;14.60;99.90
65692;DHT22;52411;52.716;6.696;2022-10-12T13:45:00;14.60;99.90
65692;DHT22;52411;52.716;6.696;2022-10-12T13:47:31;14.60;99.90
65692;DHT22;52411;52.716;6.696;2022-10-12T13:49:57;14.70;99.90
65692;DHT22;52411;52.716;6.696;2022-10-12T13:52:25;14.70;99.90
65692;DHT22;52411;52.716;6.696;2022-10-12T13:54:51;14.70;99.90
65692;DHT22;52411;52.716;6.696;2022-10-12T13:57:27;14.70;99.90
65692;DHT22;52411;52.716;6.696;2022-10-12T14:02:41;14.70;99.90
65692;DHT22;52411;52.716;6.696;2022-10-12T14:05:18;14.80;99.90
65692;DHT22;52411;52.716;6.696;2022-10-12T14:07:45;14.70;99.90
65692;DHT22;52411;52.716;6.696;2022-10-12T14:12:47;14.70;99.90
65692;DHT22;52411;52.716;6.696;2022-10-12T14:15:14;14.70;99.90
65692;DHT22;52411;52.716;6.696;2022-10-12T14:17:46;14.70;99.90
65692;DHT22;52411;52.716;6.696;2022-10-12T14:20:28;14.70;99.90
65692;DHT22;52411;52.716;6.696;2022-10-12T14:22:58;14.80;99.90
65692;DHT22;52411;52.716;6.696;2022-10-12T14:25:30;14.90;99.90
65692;DHT22;52411;52.716;6.696;2022-10-12T14:28:02;14.70;99.90
65692;DHT22;52411;52.716;6.696;2022-10-12T14:33:11;14.50;99.90
65692;DHT22;52411;52.716;6.696;2022-10-12T14:35:46;14.40;99.90
65692;DHT22;52411;52.716;6.696;2022-10-12T14:38:42;14.40;99.90
65692;DHT22;52411;52.716;6.696;2022-10-12T14:46:32;14.80;99.90
65692;DHT22;52411;52.716;6.696;2022-10-12T14:48:57;14.80;99.90
65692;DHT22;52411;52.716;6.696;2022-10-12T14:51:23;14.90;99.90
65692;DHT22;52411;52.716;6.696;2022-10-12T14:53:59;14.90;99.90
65692;DHT22;52411;52.716;6.696;2022-10-12T14:56:26;14.80;99.90
65692;DHT22;52411;52.716;6.696;2022-10-12T14:58:51;14.50;99.90
65692;DHT22;52411;52.716;6.696;2022-10-12T15:01:17;14.40;99.90
65692;DHT22;52411;52.716;6.696;2022-10-12T15:03:43;14.40;99.90
65692;DHT22;52411;52.716;6.696;2022-10-12T15:06:15;14.40;99.90
65692;DHT22;52411;52.716;6.696;2022-10-12T15:08:41;14.30;99.90
65692;DHT22;52411;52.716;6.696;2022-10-12T15:11:11;14.20;99.90
65692;DHT22;52411;52.716;6.696;2022-10-12T15:13:38;14.20;99.90
65692;DHT22;52411;52.716;6.696;2022-10-12T15:16:13;14.10;99.90
65692;DHT22;52411;52.716;6.696;2022-10-12T15:18:40;14.10;99.90
65692;DHT22;52411;52.716;6.696;2022-10-12T15:21:07;14.10;99.90
65692;DHT22;52411;52.716;6.696;2022-10-12T15:23:33;14.10;99.90
65692;DHT22;52411;52.716;6.696;2022-10-12T15:25:58;14.10;99.90
65692;DHT22;52411;52.716;6.696;2022-10-12T15:28:25;14.00;99.90
65692;DHT22;52411;52.716;6.696;2022-10-12T15:30:57;13.90;99.90
65692;DHT22;52411;52.716;6.696;2022-10-12T15:33:23;13.80;99.90
65692;DHT22;52411;52.716;6.696;2022-10-12T15:35:48;13.70;99.90
65692;DHT22;52411;52.716;6.696;2022-10-12T15:38:14;13.60;99.90
65692;DHT22;52411;52.716;6.696;2022-10-12T15:40:42;13.60;99.90
65692;DHT22;52411;52.716;6.696;2022-10-12T15:43:09;13.50;99.90
65692;DHT22;52411;52.716;6.696;2022-10-12T15:45:36;13.40;99.90
65692;DHT22;52411;52.716;6.696;2022-10-12T15:48:04;13.40;99.90
65692;DHT22;52411;52.716;6.696;2022-10-12T15:50:50;13.30;99.90
65692;DHT22;52411;52.716;6.696;2022-10-12T15:53:18;13.30;99.90
65692;DHT22;52411;52.716;6.696;2022-10-12T15:55:49;13.20;99.90
65692;DHT22;52411;52.716;6.696;2022-10-12T15:58:15;13.20;99.90
65692;DHT22;52411;52.716;6.696;2022-10-12T16:00:40;13.10;99.90
65692;DHT22;52411;52.716;6.696;2022-10-12T16:03:08;13.10;99.90
65692;DHT22;52411;52.716;6.696;2022-10-12T16:05:35;13.00;99.90
65692;DHT22;52411;52.716;6.696;2022-10-12T16:08:02;13.00;99.90
65692;DHT22;52411;52.716;6.696;2022-10-12T16:10:34;12.90;99.90
65692;DHT22;52411;52.716;6.696;2022-10-12T16:13:01;12.90;99.90
65692;DHT22;52411;52.716;6.696;2022-10-12T16:15:29;12.90;99.90
65692;DHT22;52411;52.716;6.696;2022-10-12T16:17:56;12.90;99.90
65692;DHT22;52411;52.716;6.696;2022-10-12T16:20:23;12.90;99.90
65692;DHT22;52411;52.716;6.696;2022-10-12T16:22:49;12.90;99.90
65692;DHT22;52411;52.716;6.696;2022-10-12T16:25:16;12.80;99.90
65692;DHT22;52411;52.716;6.696;2022-10-12T16:27:43;12.80;99.90
65692;DHT22;52411;52.716;6.696;2022-10-12T16:30:10;12.80;99.90
65692;DHT22;52411;52.716;6.696;2022-10-12T16:32:35;12.80;99.90
65692;DHT22;52411;52.716;6.696;2022-10-12T16:35:02;12.80;99.90
65692;DHT22;52411;52.716;6.696;2022-10-12T16:37:28;12.70;99.90
65692;DHT22;52411;52.716;6.696;2022-10-12T16:39:54;12.60;99.90
65692;DHT22;52411;52.716;6.696;2022-10-12T16:42:21;12.60;99.90
65692;DHT22;52411;52.716;6.696;2022-10-12T16:44:47;12.50;99.90
65692;DHT22;52411;52.716;6.696;2022-10-12T16:47:13;12.40;99.90
65692;DHT22;52411;52.716;6.696;2022-10-12T16:49:38;12.40;99.90
65692;DHT22;52411;52.716;6.696;2022-10-12T16:52:05;12.30;99.90
65692;DHT22;52411;52.716;6.696;2022-10-12T16:54:31;12.30;99.90
65692;DHT22;52411;52.716;6.696;2022-10-12T16:56:57;12.20;99.90
65692;DHT22;52411;52.716;6.696;2022-10-12T16:59:23;12.20;99.90
65692;DHT22;52411;52.716;6.696;2022-10-12T17:01:49;12.10;99.90
65692;DHT22;52411;52.716;6.696;2022-10-12T17:04:15;12.00;99.90
65692;DHT22;52411;52.716;6.696;2022-10-12T17:06:40;12.00;99.90
65692;DHT22;52411;52.716;6.696;2022-10-12T17:09:07;11.90;99.90
65692;DHT22;52411;52.716;6.696;2022-10-12T17:11:35;11.80;99.90
65692;DHT22;52411;52.716;6.696;2022-10-12T17:14:05;11.80;99.90
65692;DHT22;52411;52.716;6.696;2022-10-12T17:16:31;11.80;99.90
65692;DHT22;52411;52.716;6.696;2022-10-12T17:19:13;11.70;99.90
65692;DHT22;52411;52.716;6.696;2022-10-12T17:21:42;11.70;99.90
65692;DHT22;52411;52.716;6.696;2022-10-12T17:24:11;11.70;99.90
65692;DHT22;52411;52.716;6.696;2022-10-12T17:26:37;11.80;99.90
65692;DHT22;52411;52.716;6.696;2022-10-12T17:29:09;11.70;99.90
65692;DHT22;52411;52.716;6.696;2022-10-12T17:31:35;11.70;99.90
65692;DHT22;52411;52.716;6.696;2022-10-12T17:34:00;11.70;99.90
65692;DHT22;52411;52.716;6.696;2022-10-12T17:36:26;11.60;99.90